sensor_id;sensor_type;location;lat;lon;timestamp;temperature;humidity
8557;DHT22;4316;53.840;10.762;2024-03-02T00:01:05;9.20;1.00
8557;DHT22;4316;53.840;10.762;2024-03-02T00:03:31;9.20;1.00
8557;DHT22;4316;53.840;10.762;2024-03-02T00:05:57;9.10;1.00
8557;DHT22;4316;53.840;10.762;2024-03-02T00:08:24;9.10;1.00
8557;DHT22;4316;53.840;10.762;2024-03-02T00:10:51;9.20;1.00
8557;DHT22;4316;53.840;10.762;2024-03-02T00:13:20;9.20;1.00
8557;DHT22;4316;53.840;10.762;2024-03-02T00:15:51;9.20;1.00
8557;DHT22;4316;53.840;10.762;2024-03-02T00:18:24;9.20;1.00
8557;DHT22;4316;53.840;10.762;2024-03-02T00:20:53;9.20;1.00
8557;DHT22;4316;53.840;10.762;2024-03-02T00:23:20;9.10;1.00
8557;DHT22;4316;53.840;10.762;2024-03-02T00:25:49;9.10;1.00
8557;DHT22;4316;53.840;10.762;2024-03-02T00:28:25;9.10;1.00
8557;DHT22;4316;53.840;10.762;2024-03-02T00:33:19;9.00;1.00
8557;DHT22;4316;53.840;10.762;2024-03-02T00:35:45;9.00;1.00
8557;DHT22;4316;53.840;10.762;2024-03-02T00:38:12;9.00;1.00
8557;DHT22;4316;53.840;10.762;2024-03-02T00:40:40;9.00;1.00
8557;DHT22;4316;53.840;10.762;2024-03-02T00:43:05;9.00;1.00
8557;DHT22;4316;53.840;10.762;2024-03-02T00:45:32;8.90;1.00
8557;DHT22;4316;53.840;10.762;2024-03-02T00:47:57;8.90;1.00
8557;DHT22;4316;53.840;10.762;2024-03-02T00:50:23;8.80;1.00
8557;DHT22;4316;53.840;10.762;2024-03-02T00:52:49;8.80;1.00
8557;DHT22;4316;53.840;10.762;2024-03-02T00:55:15;8.80;1.00
8557;DHT22;4316;53.840;10.762;2024-03-02T00:57:40;8.70;1.00
8557;DHT22;4316;53.840;10.762;2024-03-02T01:00:07;8.70;1.00
8557;DHT22;4316;53.840;10.762;2024-03-02T01:02:37;8.70;1.00
8557;DHT22;4316;53.840;10.762;2024-03-02T01:05:03;8.80;1.00
8557;DHT22;4316;53.840;10.762;2024-03-02T01:07:30;8.80;1.00
8557;DHT22;4316;53.840;10.762;2024-03-02T01:09:56;8.80;1.00
8557;DHT22;4316;53.840;10.762;2024-03-02T01:12:22;8.70;1.00
8557;DHT22;4316;53.840;10.762;2024-03-02T01:14:47;8.80;1.00
8557;DHT22;4316;53.840;10.762;2024-03-02T01:17:13;8.70;1.00
8557;DHT22;4316;53.840;10.762;2024-03-02T01:19:41;8.70;1.00
8557;DHT22;4316;53.840;10.762;2024-03-02T01:22:07;8.70;1.00
8557;DHT22;4316;53.840;10.762;2024-03-02T01:24:33;8.70;1.00
8557;DHT22;4316;53.840;10.762;2024-03-02T01:26:59;8.70;1.00
8557;DHT22;4316;53.840;10.762;2024-03-02T01:29:25;8.60;1.00
8557;DHT22;4316;53.840;10.762;2024-03-02T01:31:50;8.50;1.00
8557;DHT22;4316;53.840;10.762;2024-03-02T01:34:17;8.50;1.00
8557;DHT22;4316;53.840;10.762;2024-03-02T01:36:42;8.40;1.00
8557;DHT22;4316;53.840;10.762;2024-03-02T01:39:08;8.50;1.00
8557;DHT22;4316;53.840;10.762;2024-03-02T01:41:35;8.40;1.00
8557;DHT22;4316;53.840;10.762;2024-03-02T01:44:00;8.30;1.00
8557;DHT22;4316;53.840;10.762;2024-03-02T01:46:26;8.30;1.00
8557;DHT22;4316;53.840;10.762;2024-03-02T01:48:52;8.40;1.00
8557;DHT22;4316;53.840;10.762;2024-03-02T01:51:18;8.40;1.00
8557;DHT22;4316;53.840;10.762;2024-03-02T01:53:43;8.50;1.00
8557;DHT22;4316;53.840;10.762;2024-03-02T01:56:09;8.50;1.00
8557;DHT22;4316;53.840;10.762;2024-03-02T01:58:35;8.50;1.00
8557;DHT22;4316;53.840;10.762;2024-03-02T02:01:01;8.50;1.00
8557;DHT22;4316;53.840;10.762;2024-03-02T02:03:27;8.50;1.00
8557;DHT22;4316;53.840;10.762;2024-03-02T02:05:53;8.50;1.00
8557;DHT22;4316;53.840;10.762;2024-03-02T02:08:19;8.50;1.00
8557;DHT22;4316;53.840;10.762;2024-03-02T02:10:45;8.50;1.00
8557;DHT22;4316;53.840;10.762;2024-03-02T02:13:11;8.50;1.00
8557;DHT22;4316;53.840;10.762;2024-03-02T02:15:36;8.50;1.00
8557;DHT22;4316;53.840;10.762;2024-03-02T02:18:02;8.40;1.00
8557;DHT22;4316;53.840;10.762;2024-03-02T02:20:29;8.40;1.00
8557;DHT22;4316;53.840;10.762;2024-03-02T02:22:59;8.40;1.00
8557;DHT22;4316;53.840;10.762;2024-03-02T02:25:25;8.40;1.00
8557;DHT22;4316;53.840;10.762;2024-03-02T02:27:52;8.40;1.00
8557;DHT22;4316;53.840;10.762;2024-03-02T02:30:22;8.40;1.00
8557;DHT22;4316;53.840;10.762;2024-03-02T02:32:48;8.30;1.00
8557;DHT22;4316;53.840;10.762;2024-03-02T02:35:14;8.30;1.00
8557;DHT22;4316;53.840;10.762;2024-03-02T02:37:40;8.20;1.00
8557;DHT22;4316;53.840;10.762;2024-03-02T02:40:07;8.10;1.00
8557;DHT22;4316;53.840;10.762;2024-03-02T02:42:33;8.10;1.00
8557;DHT22;4316;53.840;10.762;2024-03-02T02:44:59;8.10;1.00
8557;DHT22;4316;53.840;10.762;2024-03-02T02:47:25;8.20;1.00
8557;DHT22;4316;53.840;10.762;2024-03-02T02:49:51;8.20;1.00
8557;DHT22;4316;53.840;10.762;2024-03-02T02:52:17;8.10;1.00
8557;DHT22;4316;53.840;10.762;2024-03-02T02:54:44;8.10;1.00
8557;DHT22;4316;53.840;10.762;2024-03-02T02:57:09;8.10;1.00
8557;DHT22;4316;53.840;10.762;2024-03-02T02:59:35;8.10;1.00
8557;DHT22;4316;53.840;10.762;2024-03-02T03:02:02;8.00;1.00
8557;DHT22;4316;53.840;10.762;2024-03-02T03:04:28;8.00;2.30
8557;DHT22;4316;53.840;10.762;2024-03-02T03:06:54;7.90;4.60
8557;DHT22;4316;53.840;10.762;2024-03-02T03:09:19;7.90;5.30
8557;DHT22;4316;53.840;10.762;2024-03-02T03:11:46;7.80;5.70
8557;DHT22;4316;53.840;10.762;2024-03-02T03:14:11;7.80;6.60
8557;DHT22;4316;53.840;10.762;2024-03-02T03:16:38;7.80;5.50
8557;DHT22;4316;53.840;10.762;2024-03-02T03:19:04;7.90;7.00
8557;DHT22;4316;53.840;10.762;2024-03-02T03:21:29;7.80;3.40
8557;DHT22;4316;53.840;10.762;2024-03-02T03:23:55;7.80;6.40
8557;DHT22;4316;53.840;10.762;2024-03-02T03:26:21;7.80;9.70
8557;DHT22;4316;53.840;10.762;2024-03-02T03:28:47;7.80;9.60
8557;DHT22;4316;53.840;10.762;2024-03-02T03:31:12;7.90;4.00
8557;DHT22;4316;53.840;10.762;2024-03-02T03:33:38;7.90;3.50
8557;DHT22;4316;53.840;10.762;2024-03-02T03:36:04;7.90;4.50
8557;DHT22;4316;53.840;10.762;2024-03-02T03:38:30;7.90;4.10
8557;DHT22;4316;53.840;10.762;2024-03-02T03:40:56;7.80;3.10
8557;DHT22;4316;53.840;10.762;2024-03-02T03:43:22;7.90;4.30
8557;DHT22;4316;53.840;10.762;2024-03-02T03:45:47;7.90;4.40
8557;DHT22;4316;53.840;10.762;2024-03-02T03:48:13;7.90;4.70
8557;DHT22;4316;53.840;10.762;2024-03-02T03:50:39;8.00;3.00
8557;DHT22;4316;53.840;10.762;2024-03-02T03:53:05;8.00;2.80
8557;DHT22;4316;53.840;10.762;2024-03-02T03:55:31;8.00;2.20
8557;DHT22;4316;53.840;10.762;2024-03-02T03:57:56;8.00;2.30
8557;DHT22;4316;53.840;10.762;2024-03-02T04:00:22;7.90;1.00
8557;DHT22;4316;53.840;10.762;2024-03-02T04:02:48;7.90;2.00
8557;DHT22;4316;53.840;10.762;2024-03-02T04:05:14;7.90;2.30
8557;DHT22;4316;53.840;10.762;2024-03-02T04:07:39;8.00;4.50
8557;DHT22;4316;53.840;10.762;2024-03-02T04:10:09;7.90;1.20
8557;DHT22;4316;53.840;10.762;2024-03-02T04:12:39;7.90;1.40
8557;DHT22;4316;53.840;10.762;2024-03-02T04:15:05;7.80;2.10
8557;DHT22;4316;53.840;10.762;2024-03-02T04:17:33;7.80;3.10
8557;DHT22;4316;53.840;10.762;2024-03-02T04:19:59;7.70;3.80
8557;DHT22;4316;53.840;10.762;2024-03-02T04:22:27;7.80;4.00
8557;DHT22;4316;53.840;10.762;2024-03-02T04:24:52;7.80;3.80
8557;DHT22;4316;53.840;10.762;2024-03-02T04:27:19;7.80;4.00
8557;DHT22;4316;53.840;10.762;2024-03-02T04:29:44;7.80;3.50
8557;DHT22;4316;53.840;10.762;2024-03-02T04:32:10;7.80;2.50
8557;DHT22;4316;53.840;10.762;2024-03-02T04:34:36;7.80;2.90
8557;DHT22;4316;53.840;10.762;2024-03-02T04:37:01;7.80;3.20
8557;DHT22;4316;53.840;10.762;2024-03-02T04:39:27;7.90;2.10
8557;DHT22;4316;53.840;10.762;2024-03-02T04:41:54;7.80;1.00
8557;DHT22;4316;53.840;10.762;2024-03-02T04:44:19;7.80;1.00
8557;DHT22;4316;53.840;10.762;2024-03-02T04:46:45;7.80;1.00
8557;DHT22;4316;53.840;10.762;2024-03-02T04:49:11;7.80;1.30
8557;DHT22;4316;53.840;10.762;2024-03-02T04:51:37;7.80;1.30
8557;DHT22;4316;53.840;10.762;2024-03-02T04:54:02;7.80;1.00
8557;DHT22;4316;53.840;10.762;2024-03-02T04:56:28;7.80;2.20
8557;DHT22;4316;53.840;10.762;2024-03-02T04:58:57;7.80;1.70
8557;DHT22;4316;53.840;10.762;2024-03-02T05:01:23;7.80;1.50
8557;DHT22;4316;53.840;10.762;2024-03-02T05:03:48;7.80;1.60
8557;DHT22;4316;53.840;10.762;2024-03-02T05:06:14;7.80;1.00
8557;DHT22;4316;53.840;10.762;2024-03-02T05:08:40;7.80;1.00
8557;DHT22;4316;53.840;10.762;2024-03-02T05:11:06;7.80;1.00
8557;DHT22;4316;53.840;10.762;2024-03-02T05:13:50;7.80;1.10
8557;DHT22;4316;53.840;10.762;2024-03-02T05:16:16;7.80;2.50
8557;DHT22;4316;53.840;10.762;2024-03-02T05:18:41;7.80;2.10
8557;DHT22;4316;53.840;10.762;2024-03-02T05:21:07;7.80;1.00
8557;DHT22;4316;53.840;10.762;2024-03-02T05:23:33;7.80;1.30
8557;DHT22;4316;53.840;10.762;2024-03-02T05:25:58;7.70;1.20
8557;DHT22;4316;53.840;10.762;2024-03-02T05:28:24;7.70;1.80
8557;DHT22;4316;53.840;10.762;2024-03-02T05:30:50;7.60;5.70
8557;DHT22;4316;53.840;10.762;2024-03-02T05:33:16;7.50;8.60
8557;DHT22;4316;53.840;10.762;2024-03-02T05:35:44;7.60;7.40
8557;DHT22;4316;53.840;10.762;2024-03-02T05:38:09;7.60;6.90
8557;DHT22;4316;53.840;10.762;2024-03-02T05:40:35;7.60;7.80
8557;DHT22;4316;53.840;10.762;2024-03-02T05:43:02;7.50;11.70
8557;DHT22;4316;53.840;10.762;2024-03-02T05:45:28;7.50;12.70
8557;DHT22;4316;53.840;10.762;2024-03-02T05:47:54;7.50;11.60
8557;DHT22;4316;53.840;10.762;2024-03-02T05:50:19;7.50;11.90
8557;DHT22;4316;53.840;10.762;2024-03-02T05:52:45;7.50;11.70
8557;DHT22;4316;53.840;10.762;2024-03-02T05:55:11;7.60;12.60
8557;DHT22;4316;53.840;10.762;2024-03-02T05:57:37;7.60;9.90
8557;DHT22;4316;53.840;10.762;2024-03-02T06:00:09;7.60;9.80
8557;DHT22;4316;53.840;10.762;2024-03-02T06:02:41;7.60;11.60
8557;DHT22;4316;53.840;10.762;2024-03-02T06:05:07;7.60;9.20
8557;DHT22;4316;53.840;10.762;2024-03-02T06:07:33;7.60;11.40
8557;DHT22;4316;53.840;10.762;2024-03-02T06:09:58;7.60;9.70
8557;DHT22;4316;53.840;10.762;2024-03-02T06:12:24;7.60;9.70
8557;DHT22;4316;53.840;10.762;2024-03-02T06:14:50;7.60;9.60
8557;DHT22;4316;53.840;10.762;2024-03-02T06:17:16;7.60;9.40
8557;DHT22;4316;53.840;10.762;2024-03-02T06:19:42;7.60;8.30
8557;DHT22;4316;53.840;10.762;2024-03-02T06:22:07;7.60;7.80
8557;DHT22;4316;53.840;10.762;2024-03-02T06:24:36;7.50;8.70
8557;DHT22;4316;53.840;10.762;2024-03-02T06:27:03;7.50;10.90
8557;DHT22;4316;53.840;10.762;2024-03-02T06:29:31;7.60;9.30
8557;DHT22;4316;53.840;10.762;2024-03-02T06:31:57;7.50;12.40
8557;DHT22;4316;53.840;10.762;2024-03-02T06:34:23;7.50;16.50
8557;DHT22;4316;53.840;10.762;2024-03-02T06:36:49;7.50;15.60
8557;DHT22;4316;53.840;10.762;2024-03-02T06:39:14;7.40;17.00
8557;DHT22;4316;53.840;10.762;2024-03-02T06:41:40;7.50;17.30
8557;DHT22;4316;53.840;10.762;2024-03-02T06:44:06;7.60;14.50
8557;DHT22;4316;53.840;10.762;2024-03-02T06:46:32;7.60;12.40
8557;DHT22;4316;53.840;10.762;2024-03-02T06:48:57;7.50;15.60
8557;DHT22;4316;53.840;10.762;2024-03-02T06:51:23;7.50;17.10
8557;DHT22;4316;53.840;10.762;2024-03-02T06:53:49;7.50;21.30
8557;DHT22;4316;53.840;10.762;2024-03-02T06:56:15;7.50;21.70
8557;DHT22;4316;53.840;10.762;2024-03-02T06:58:40;7.60;23.10
8557;DHT22;4316;53.840;10.762;2024-03-02T07:01:06;7.50;21.30
8557;DHT22;4316;53.840;10.762;2024-03-02T07:03:32;7.60;23.50
8557;DHT22;4316;53.840;10.762;2024-03-02T07:05:58;7.50;25.70
8557;DHT22;4316;53.840;10.762;2024-03-02T07:08:24;7.60;26.30
8557;DHT22;4316;53.840;10.762;2024-03-02T07:10:50;7.60;27.70
8557;DHT22;4316;53.840;10.762;2024-03-02T07:13:15;7.70;26.30
8557;DHT22;4316;53.840;10.762;2024-03-02T07:15:41;7.70;26.90
8557;DHT22;4316;53.840;10.762;2024-03-02T07:18:42;7.60;27.80
8557;DHT22;4316;53.840;10.762;2024-03-02T07:21:10;7.70;26.00
8557;DHT22;4316;53.840;10.762;2024-03-02T07:23:36;7.70;28.10
8557;DHT22;4316;53.840;10.762;2024-03-02T07:26:02;7.80;26.60
8557;DHT22;4316;53.840;10.762;2024-03-02T07:28:29;7.70;26.80
8557;DHT22;4316;53.840;10.762;2024-03-02T07:31:01;7.70;30.20
8557;DHT22;4316;53.840;10.762;2024-03-02T07:33:27;7.70;32.40
8557;DHT22;4316;53.840;10.762;2024-03-02T07:35:54;7.70;31.40
8557;DHT22;4316;53.840;10.762;2024-03-02T07:38:21;7.70;33.60
8557;DHT22;4316;53.840;10.762;2024-03-02T07:40:48;7.70;33.50
8557;DHT22;4316;53.840;10.762;2024-03-02T07:43:17;7.70;34.20
8557;DHT22;4316;53.840;10.762;2024-03-02T07:45:43;7.80;31.50
8557;DHT22;4316;53.840;10.762;2024-03-02T07:48:09;7.80;30.00
8557;DHT22;4316;53.840;10.762;2024-03-02T07:50:35;7.80;36.00
8557;DHT22;4316;53.840;10.762;2024-03-02T07:53:01;7.90;32.90
8557;DHT22;4316;53.840;10.762;2024-03-02T07:55:27;7.90;30.30
8557;DHT22;4316;53.840;10.762;2024-03-02T07:57:53;7.90;30.90
8557;DHT22;4316;53.840;10.762;2024-03-02T08:00:19;8.00;28.30
8557;DHT22;4316;53.840;10.762;2024-03-02T08:02:44;8.10;24.80
8557;DHT22;4316;53.840;10.762;2024-03-02T08:05:10;8.10;25.60
8557;DHT22;4316;53.840;10.762;2024-03-02T08:07:36;8.20;24.90
8557;DHT22;4316;53.840;10.762;2024-03-02T08:10:02;8.30;22.40
8557;DHT22;4316;53.840;10.762;2024-03-02T08:12:28;8.40;19.20
8557;DHT22;4316;53.840;10.762;2024-03-02T08:14:54;8.50;18.10
8557;DHT22;4316;53.840;10.762;2024-03-02T08:17:19;8.60;16.20
8557;DHT22;4316;53.840;10.762;2024-03-02T08:19:45;8.60;15.90
8557;DHT22;4316;53.840;10.762;2024-03-02T08:22:16;8.70;16.70
8557;DHT22;4316;53.840;10.762;2024-03-02T08:24:42;8.90;14.70
8557;DHT22;4316;53.840;10.762;2024-03-02T08:27:08;8.80;8.20
8557;DHT22;4316;53.840;10.762;2024-03-02T08:29:34;8.90;8.80
8557;DHT22;4316;53.840;10.762;2024-03-02T08:32:00;8.90;8.90
8557;DHT22;4316;53.840;10.762;2024-03-02T08:34:26;8.90;4.50
8557;DHT22;4316;53.840;10.762;2024-03-02T08:36:52;8.80;6.00
8557;DHT22;4316;53.840;10.762;2024-03-02T08:39:18;8.80;7.00
8557;DHT22;4316;53.840;10.762;2024-03-02T08:41:45;8.90;6.30
8557;DHT22;4316;53.840;10.762;2024-03-02T08:44:12;8.90;4.90
8557;DHT22;4316;53.840;10.762;2024-03-02T08:46:41;8.90;4.10
8557;DHT22;4316;53.840;10.762;2024-03-02T08:49:07;8.90;5.60
8557;DHT22;4316;53.840;10.762;2024-03-02T08:51:33;8.90;5.40
8557;DHT22;4316;53.840;10.762;2024-03-02T08:53:59;8.90;3.50
8557;DHT22;4316;53.840;10.762;2024-03-02T08:56:25;8.90;3.00
8557;DHT22;4316;53.840;10.762;2024-03-02T08:58:51;8.80;3.00
8557;DHT22;4316;53.840;10.762;2024-03-02T09:01:18;8.70;6.10
8557;DHT22;4316;53.840;10.762;2024-03-02T09:03:45;8.80;5.50
8557;DHT22;4316;53.840;10.762;2024-03-02T09:06:11;8.80;5.30
8557;DHT22;4316;53.840;10.762;2024-03-02T09:08:37;8.80;4.10
8557;DHT22;4316;53.840;10.762;2024-03-02T09:11:05;8.90;4.40
8557;DHT22;4316;53.840;10.762;2024-03-02T09:13:32;9.00;1.90
8557;DHT22;4316;53.840;10.762;2024-03-02T09:15:58;9.00;1.00
8557;DHT22;4316;53.840;10.762;2024-03-02T09:18:24;9.00;1.00
8557;DHT22;4316;53.840;10.762;2024-03-02T09:20:50;9.10;1.00
8557;DHT22;4316;53.840;10.762;2024-03-02T09:23:16;9.10;1.00
8557;DHT22;4316;53.840;10.762;2024-03-02T09:25:41;9.20;1.00
8557;DHT22;4316;53.840;10.762;2024-03-02T09:28:07;9.30;1.00
8557;DHT22;4316;53.840;10.762;2024-03-02T09:30:33;9.40;1.00
8557;DHT22;4316;53.840;10.762;2024-03-02T09:32:59;9.50;1.00
8557;DHT22;4316;53.840;10.762;2024-03-02T09:35:25;9.50;1.00
8557;DHT22;4316;53.840;10.762;2024-03-02T09:37:51;9.50;1.00
8557;DHT22;4316;53.840;10.762;2024-03-02T09:40:17;9.70;1.00
8557;DHT22;4316;53.840;10.762;2024-03-02T09:42:43;9.80;1.00
8557;DHT22;4316;53.840;10.762;2024-03-02T09:45:11;9.90;1.00
8557;DHT22;4316;53.840;10.762;2024-03-02T09:47:37;10.10;1.00
8557;DHT22;4316;53.840;10.762;2024-03-02T09:50:02;10.20;1.00
8557;DHT22;4316;53.840;10.762;2024-03-02T09:52:30;10.50;1.00
8557;DHT22;4316;53.840;10.762;2024-03-02T09:54:56;10.70;1.00
8557;DHT22;4316;53.840;10.762;2024-03-02T09:57:22;10.80;1.00
8557;DHT22;4316;53.840;10.762;2024-03-02T09:59:48;11.10;1.00
8557;DHT22;4316;53.840;10.762;2024-03-02T10:02:14;11.30;1.00
8557;DHT22;4316;53.840;10.762;2024-03-02T10:04:39;11.30;1.00
8557;DHT22;4316;53.840;10.762;2024-03-02T10:07:15;11.30;1.00
8557;DHT22;4316;53.840;10.762;2024-03-02T10:09:42;11.40;1.00
8557;DHT22;4316;53.840;10.762;2024-03-02T10:12:09;11.20;1.00
8557;DHT22;4316;53.840;10.762;2024-03-02T10:14:37;11.20;1.00
8557;DHT22;4316;53.840;10.762;2024-03-02T10:17:04;11.20;1.00
8557;DHT22;4316;53.840;10.762;2024-03-02T10:19:30;11.40;1.00
8557;DHT22;4316;53.840;10.762;2024-03-02T10:21:59;11.40;1.00
8557;DHT22;4316;53.840;10.762;2024-03-02T10:24:24;11.40;1.00
8557;DHT22;4316;53.840;10.762;2024-03-02T10:26:51;11.30;1.00
8557;DHT22;4316;53.840;10.762;2024-03-02T10:29:18;11.40;1.00
8557;DHT22;4316;53.840;10.762;2024-03-02T10:31:45;11.60;1.00
8557;DHT22;4316;53.840;10.762;2024-03-02T10:34:12;11.80;1.00
8557;DHT22;4316;53.840;10.762;2024-03-02T10:36:41;11.90;1.00
8557;DHT22;4316;53.840;10.762;2024-03-02T10:39:08;11.90;1.00
8557;DHT22;4316;53.840;10.762;2024-03-02T10:41:35;11.90;1.00
8557;DHT22;4316;53.840;10.762;2024-03-02T10:44:09;12.00;1.00
8557;DHT22;4316;53.840;10.762;2024-03-02T10:46:37;12.00;1.00
8557;DHT22;4316;53.840;10.762;2024-03-02T10:49:04;12.00;1.00
8557;DHT22;4316;53.840;10.762;2024-03-02T10:51:31;11.90;1.00
8557;DHT22;4316;53.840;10.762;2024-03-02T10:54:01;12.00;1.00
8557;DHT22;4316;53.840;10.762;2024-03-02T10:56:32;11.90;1.00
8557;DHT22;4316;53.840;10.762;2024-03-02T11:01:39;11.90;1.00
8557;DHT22;4316;53.840;10.762;2024-03-02T11:04:08;11.90;1.00
8557;DHT22;4316;53.840;10.762;2024-03-02T11:06:36;11.80;1.00
8557;DHT22;4316;53.840;10.762;2024-03-02T11:09:07;12.00;1.00
8557;DHT22;4316;53.840;10.762;2024-03-02T11:11:41;11.90;1.00
8557;DHT22;4316;53.840;10.762;2024-03-02T11:14:13;12.00;1.00
8557;DHT22;4316;53.840;10.762;2024-03-02T11:16:39;12.10;1.00
8557;DHT22;4316;53.840;10.762;2024-03-02T11:19:12;12.10;1.00
8557;DHT22;4316;53.840;10.762;2024-03-02T11:21:38;12.10;1.00
8557;DHT22;4316;53.840;10.762;2024-03-02T11:24:29;12.20;1.00
8557;DHT22;4316;53.840;10.762;2024-03-02T11:27:03;12.30;1.00
8557;DHT22;4316;53.840;10.762;2024-03-02T11:32:06;12.40;1.00
8557;DHT22;4316;53.840;10.762;2024-03-02T11:34:33;12.40;1.00
8557;DHT22;4316;53.840;10.762;2024-03-02T11:37:02;12.50;1.00
8557;DHT22;4316;53.840;10.762;2024-03-02T11:39:30;12.50;1.00
8557;DHT22;4316;53.840;10.762;2024-03-02T11:41:56;12.70;1.00
8557;DHT22;4316;53.840;10.762;2024-03-02T11:44:26;12.30;1.00
8557;DHT22;4316;53.840;10.762;2024-03-02T11:46:59;12.30;1.00
8557;DHT22;4316;53.840;10.762;2024-03-02T11:49:52;12.40;1.00
8557;DHT22;4316;53.840;10.762;2024-03-02T11:52:18;12.40;99.90
8557;DHT22;4316;53.840;10.762;2024-03-02T11:54:46;12.40;99.90
8557;DHT22;4316;53.840;10.762;2024-03-02T11:57:13;12.60;99.90
8557;DHT22;4316;53.840;10.762;2024-03-02T11:59:40;12.60;99.90
8557;DHT22;4316;53.840;10.762;2024-03-02T12:02:06;12.50;99.90
8557;DHT22;4316;53.840;10.762;2024-03-02T12:04:32;12.70;99.90
8557;DHT22;4316;53.840;10.762;2024-03-02T12:07:00;12.80;99.90
8557;DHT22;4316;53.840;10.762;2024-03-02T12:09:29;12.80;99.90
8557;DHT22;4316;53.840;10.762;2024-03-02T12:12:05;13.00;99.90
8557;DHT22;4316;53.840;10.762;2024-03-02T12:14:32;13.30;99.90
8557;DHT22;4316;53.840;10.762;2024-03-02T12:16:58;13.70;99.90
8557;DHT22;4316;53.840;10.762;2024-03-02T12:19:25;13.80;99.90
8557;DHT22;4316;53.840;10.762;2024-03-02T12:21:52;14.00;99.90
8557;DHT22;4316;53.840;10.762;2024-03-02T12:24:18;14.10;99.90
8557;DHT22;4316;53.840;10.762;2024-03-02T12:26:44;14.20;99.90
8557;DHT22;4316;53.840;10.762;2024-03-02T12:29:12;14.30;99.90
8557;DHT22;4316;53.840;10.762;2024-03-02T12:31:39;14.10;99.90
8557;DHT22;4316;53.840;10.762;2024-03-02T12:34:04;14.10;99.90
8557;DHT22;4316;53.840;10.762;2024-03-02T12:36:36;13.80;99.90
8557;DHT22;4316;53.840;10.762;2024-03-02T12:39:02;13.90;99.90
8557;DHT22;4316;53.840;10.762;2024-03-02T12:41:28;14.00;99.90
8557;DHT22;4316;53.840;10.762;2024-03-02T12:43:54;14.00;99.90
8557;DHT22;4316;53.840;10.762;2024-03-02T12:46:20;14.00;99.90
8557;DHT22;4316;53.840;10.762;2024-03-02T12:48:46;13.90;99.90
8557;DHT22;4316;53.840;10.762;2024-03-02T12:51:12;13.90;99.90
8557;DHT22;4316;53.840;10.762;2024-03-02T12:53:37;13.70;99.90
8557;DHT22;4316;53.840;10.762;2024-03-02T12:56:04;13.60;99.90
8557;DHT22;4316;53.840;10.762;2024-03-02T12:58:30;13.70;99.90
8557;DHT22;4316;53.840;10.762;2024-03-02T13:01:07;13.50;99.90
8557;DHT22;4316;53.840;10.762;2024-03-02T13:03:41;13.60;99.90
8557;DHT22;4316;53.840;10.762;2024-03-02T13:06:07;13.70;99.90
8557;DHT22;4316;53.840;10.762;2024-03-02T13:08:36;13.70;99.90
8557;DHT22;4316;53.840;10.762;2024-03-02T13:11:02;13.60;99.90
8557;DHT22;4316;53.840;10.762;2024-03-02T13:13:32;13.30;99.90
8557;DHT22;4316;53.840;10.762;2024-03-02T13:15:58;13.20;99.90
8557;DHT22;4316;53.840;10.762;2024-03-02T13:18:23;13.20;99.90
8557;DHT22;4316;53.840;10.762;2024-03-02T13:20:49;13.20;99.90
8557;DHT22;4316;53.840;10.762;2024-03-02T13:23:15;13.30;99.90
8557;DHT22;4316;53.840;10.762;2024-03-02T13:25:41;13.20;99.90
8557;DHT22;4316;53.840;10.762;2024-03-02T13:28:06;13.20;99.90
8557;DHT22;4316;53.840;10.762;2024-03-02T13:30:32;13.30;99.90
8557;DHT22;4316;53.840;10.762;2024-03-02T13:32:58;13.20;99.90
8557;DHT22;4316;53.840;10.762;2024-03-02T13:35:24;13.30;99.90
8557;DHT22;4316;53.840;10.762;2024-03-02T13:37:50;13.40;99.90
8557;DHT22;4316;53.840;10.762;2024-03-02T13:40:16;13.60;99.90
8557;DHT22;4316;53.840;10.762;2024-03-02T13:42:49;13.70;99.90
8557;DHT22;4316;53.840;10.762;2024-03-02T13:45:16;13.80;99.90
8557;DHT22;4316;53.840;10.762;2024-03-02T13:47:44;13.90;99.90
8557;DHT22;4316;53.840;10.762;2024-03-02T13:50:09;13.90;99.90
8557;DHT22;4316;53.840;10.762;2024-03-02T13:52:35;13.90;99.90
8557;DHT22;4316;53.840;10.762;2024-03-02T13:55:01;13.80;99.90
8557;DHT22;4316;53.840;10.762;2024-03-02T13:57:27;13.80;99.90
8557;DHT22;4316;53.840;10.762;2024-03-02T13:59:53;13.70;99.90
8557;DHT22;4316;53.840;10.762;2024-03-02T14:02:20;13.70;99.90
8557;DHT22;4316;53.840;10.762;2024-03-02T14:04:48;13.60;99.90
8557;DHT22;4316;53.840;10.762;2024-03-02T14:07:15;13.60;99.90
8557;DHT22;4316;53.840;10.762;2024-03-02T14:09:41;13.50;99.90
8557;DHT22;4316;53.840;10.762;2024-03-02T14:12:07;13.50;99.90
8557;DHT22;4316;53.840;10.762;2024-03-02T14:14:33;13.40;99.90
8557;DHT22;4316;53.840;10.762;2024-03-02T14:16:59;13.30;99.90
8557;DHT22;4316;53.840;10.762;2024-03-02T14:19:29;13.20;99.90
8557;DHT22;4316;53.840;10.762;2024-03-02T14:21:54;13.20;99.90
8557;DHT22;4316;53.840;10.762;2024-03-02T14:24:20;13.30;99.90
8557;DHT22;4316;53.840;10.762;2024-03-02T14:26:49;13.30;99.90
8557;DHT22;4316;53.840;10.762;2024-03-02T14:29:15;13.20;99.90
8557;DHT22;4316;53.840;10.762;2024-03-02T14:31:41;13.20;99.90
8557;DHT22;4316;53.840;10.762;2024-03-02T14:34:07;13.20;99.90
8557;DHT22;4316;53.840;10.762;2024-03-02T14:36:32;13.20;99.90
8557;DHT22;4316;53.840;10.762;2024-03-02T14:38:59;13.20;99.90
8557;DHT22;4316;53.840;10.762;2024-03-02T14:41:25;13.10;99.90
8557;DHT22;4316;53.840;10.762;2024-03-02T14:43:54;13.20;99.90
8557;DHT22;4316;53.840;10.762;2024-03-02T14:46:19;13.10;99.90
8557;DHT22;4316;53.840;10.762;2024-03-02T14:48:45;13.10;99.90
8557;DHT22;4316;53.840;10.762;2024-03-02T14:51:11;13.10;99.90
8557;DHT22;4316;53.840;10.762;2024-03-02T14:53:38;13.10;99.90
8557;DHT22;4316;53.840;10.762;2024-03-02T14:56:05;13.10;99.90
8557;DHT22;4316;53.840;10.762;2024-03-02T14:58:31;13.20;99.90
8557;DHT22;4316;53.840;10.762;2024-03-02T15:00:57;13.10;99.90
8557;DHT22;4316;53.840;10.762;2024-03-02T15:03:23;13.00;99.90
8557;DHT22;4316;53.840;10.762;2024-03-02T15:05:49;12.90;99.90
8557;DHT22;4316;53.840;10.762;2024-03-02T15:08:17;12.90;99.90
8557;DHT22;4316;53.840;10.762;2024-03-02T15:10:43;12.90;99.90
8557;DHT22;4316;53.840;10.762;2024-03-02T15:13:10;12.90;99.90
8557;DHT22;4316;53.840;10.762;2024-03-02T15:15:38;12.90;99.90
8557;DHT22;4316;53.840;10.762;2024-03-02T15:18:04;13.00;99.90
8557;DHT22;4316;53.840;10.762;2024-03-02T15:20:30;13.00;99.90
8557;DHT22;4316;53.840;10.762;2024-03-02T15:22:55;13.00;99.90
8557;DHT22;4316;53.840;10.762;2024-03-02T15:25:21;13.00;99.90
8557;DHT22;4316;53.840;10.762;2024-03-02T15:27:47;13.00;99.90
8557;DHT22;4316;53.840;10.762;2024-03-02T15:30:14;13.10;99.90
8557;DHT22;4316;53.840;10.762;2024-03-02T15:32:43;13.00;99.90
8557;DHT22;4316;53.840;10.762;2024-03-02T15:35:09;13.00;99.90
8557;DHT22;4316;53.840;10.762;2024-03-02T15:37:36;13.10;99.90
8557;DHT22;4316;53.840;10.762;2024-03-02T15:40:03;13.00;99.90
8557;DHT22;4316;53.840;10.762;2024-03-02T15:42:32;13.10;99.90
8557;DHT22;4316;53.840;10.762;2024-03-02T15:44:58;13.00;99.90
8557;DHT22;4316;53.840;10.762;2024-03-02T15:47:24;12.90;99.90
8557;DHT22;4316;53.840;10.762;2024-03-02T15:49:50;12.90;99.90
8557;DHT22;4316;53.840;10.762;2024-03-02T15:52:16;12.90;99.90
8557;DHT22;4316;53.840;10.762;2024-03-02T15:54:45;12.90;99.90
8557;DHT22;4316;53.840;10.762;2024-03-02T15:57:10;12.90;99.90
8557;DHT22;4316;53.840;10.762;2024-03-02T15:59:36;13.00;99.90
8557;DHT22;4316;53.840;10.762;2024-03-02T16:02:02;12.90;99.90
8557;DHT22;4316;53.840;10.762;2024-03-02T16:04:29;13.00;99.90
8557;DHT22;4316;53.840;10.762;2024-03-02T16:06:55;12.90;99.90
8557;DHT22;4316;53.840;10.762;2024-03-02T16:09:21;12.90;99.90